createdAt,value
2022-10-11T00:01:57.717Z,24.93
2022-10-11T00:04:34.825Z,24.47
2022-10-11T00:07:13.269Z,24.90
2022-10-11T00:09:51.673Z,23.97
2022-10-11T00:12:29.992Z,25.87
2022-10-11T00:15:08.801Z,23.70
2022-10-11T00:17:46.743Z,23.30
2022-10-11T00:20:24.918Z,21.20
2022-10-11T00:23:03.112Z,22.93
2022-10-11T00:25:41.431Z,25.23
2022-10-11T00:28:19.981Z,23.83
2022-10-11T00:30:58.224Z,23.50
2022-10-11T00:33:36.866Z,26.30
2022-10-11T00:36:17.016Z,27.93
2022-10-11T00:38:54.809Z,30.13
2022-10-11T00:41:33.357Z,29.30
2022-10-11T00:44:25.309Z,27.23
2022-10-11T00:47:04.973Z,27.07
2022-10-11T00:49:46.910Z,26.40
2022-10-11T00:52:34.167Z,25.47
2022-10-11T00:55:14.323Z,29.90
2022-10-11T00:57:53.076Z,27.13
2022-10-11T01:00:31.917Z,27.07
2022-10-11T01:03:10.140Z,27.70
2022-10-11T01:05:51.270Z,26.80
2022-10-11T01:08:28.449Z,26.10
2022-10-11T01:11:06.969Z,26.60
2022-10-11T01:13:54.228Z,28.43
2022-10-11T01:16:42.586Z,28.47
2022-10-11T01:19:29.921Z,28.63
2022-10-11T01:22:21.342Z,27.63
2022-10-11T01:25:00.110Z,28.87
2022-10-11T01:27:38.406Z,27.30
2022-10-11T01:30:22.678Z,28.67
2022-10-11T01:33:07.778Z,29.13
2022-10-11T01:35:53.847Z,32.60
2022-10-11T01:38:35.785Z,30.23
2022-10-11T01:41:16.972Z,31.63
2022-10-11T01:43:59.746Z,32.53
2022-10-11T01:46:38.581Z,33.90
2022-10-11T01:49:16.954Z,31.03
2022-10-11T01:51:55.817Z,33.53
2022-10-11T01:54:56.514Z,33.20
2022-10-11T01:57:34.177Z,31.80
2022-10-11T02:00:23.313Z,31.50
2022-10-11T02:03:12.364Z,33.30
2022-10-11T02:05:50.156Z,30.50
2022-10-11T02:08:34.655Z,30.53
2022-10-11T02:11:19.685Z,30.30
2022-10-11T02:14:04.616Z,31.40
2022-10-11T02:16:46.434Z,31.00
2022-10-11T02:19:27.547Z,30.13
2022-10-11T02:22:07.905Z,26.60
2022-10-11T02:24:48.351Z,28.00
2022-10-11T02:27:27.194Z,28.37
2022-10-11T02:30:07.550Z,29.33
2022-10-11T02:32:46.551Z,29.20
2022-10-11T02:35:27.485Z,27.77
2022-10-11T02:38:09.961Z,28.50
2022-10-11T02:40:50.434Z,31.70
2022-10-11T02:43:37.908Z,33.60
2022-10-11T02:46:17.747Z,51.30
2022-10-11T02:48:57.660Z,42.80
2022-10-11T02:51:36.213Z,38.03
2022-10-11T02:54:14.322Z,28.47
2022-10-11T02:56:52.673Z,25.63
2022-10-11T02:59:30.950Z,26.70
2022-10-11T03:02:09.513Z,30.17
2022-10-11T03:04:47.554Z,30.37
2022-10-11T03:07:25.895Z,30.97
2022-10-11T03:10:05.040Z,33.67
2022-10-11T03:12:42.547Z,33.60
2022-10-11T03:15:20.836Z,30.07
2022-10-11T03:18:11.254Z,32.17
2022-10-11T03:20:49.377Z,33.63
2022-10-11T03:23:27.753Z,33.10
2022-10-11T03:26:06.850Z,31.57
2022-10-11T03:28:46.236Z,33.03
2022-10-11T03:31:24.330Z,30.87
2022-10-11T03:34:02.915Z,38.30
2022-10-11T03:36:41.002Z,45.70
2022-10-11T03:39:19.508Z,30.73
2022-10-11T03:41:57.801Z,33.07
2022-10-11T03:44:36.005Z,36.57
2022-10-11T03:47:14.416Z,38.10
2022-10-11T03:49:52.901Z,31.10
2022-10-11T03:52:30.937Z,31.53
2022-10-11T03:55:09.296Z,28.13
2022-10-11T03:57:47.653Z,32.60
2022-10-11T04:00:26.193Z,39.03
2022-10-11T04:03:04.249Z,35.40
2022-10-11T04:05:42.662Z,44.73
2022-10-11T04:08:27.757Z,35.03
2022-10-11T04:11:05.905Z,32.07
2022-10-11T04:13:44.054Z,28.90
2022-10-11T04:16:22.430Z,29.33
2022-10-11T04:19:00.688Z,30.07
2022-10-11T04:21:39.030Z,33.53
2022-10-11T04:24:17.333Z,40.67
2022-10-11T04:26:55.685Z,36.77
2022-10-11T04:29:34.193Z,35.70
2022-10-11T04:32:12.328Z,34.30
2022-10-11T04:34:51.421Z,46.00
2022-10-11T04:37:28.918Z,44.13
2022-10-11T04:40:08.149Z,55.30
2022-10-11T04:42:45.662Z,46.73
2022-10-11T04:45:24.196Z,46.87
2022-10-11T04:48:02.274Z,38.77
2022-10-11T04:50:40.541Z,38.00
2022-10-11T04:53:18.995Z,35.63
2022-10-11T04:55:57.870Z,34.97
2022-10-11T04:58:35.866Z,40.40
2022-10-11T05:01:14.429Z,49.20
2022-10-11T05:03:52.380Z,62.13
2022-10-11T05:06:30.678Z,40.23
2022-10-11T05:09:09.048Z,33.10
2022-10-11T05:11:47.338Z,39.03
2022-10-11T05:14:25.589Z,61.13
2022-10-11T05:17:04.164Z,65.40
2022-10-11T05:19:42.317Z,59.07
2022-10-11T05:22:20.519Z,47.60
2022-10-11T05:24:58.913Z,40.57
2022-10-11T05:27:37.445Z,37.93
2022-10-11T05:30:16.300Z,36.77
2022-10-11T05:32:53.735Z,44.87
2022-10-11T05:35:32.159Z,40.30
2022-10-11T05:38:10.797Z,35.27
2022-10-11T05:40:49.047Z,37.70
2022-10-11T05:43:39.039Z,49.70
2022-10-11T05:46:17.307Z,47.40
2022-10-11T05:48:55.721Z,31.60
2022-10-11T05:51:34.229Z,33.40
2022-10-11T05:54:12.319Z,32.40
2022-10-11T05:56:50.693Z,35.27
2022-10-11T05:59:29.042Z,35.07
2022-10-11T06:02:09.966Z,33.00
2022-10-11T06:04:47.194Z,40.20
2022-10-11T06:07:25.558Z,41.00
2022-10-11T06:10:04.264Z,34.83
2022-10-11T06:12:42.168Z,37.10
2022-10-11T06:15:34.833Z,41.17
2022-10-11T06:18:36.129Z,42.60
2022-10-11T06:21:33.615Z,34.00
2022-10-11T06:24:28.024Z,38.67
2022-10-11T06:27:23.114Z,34.77
2022-10-11T06:30:22.835Z,34.50
2022-10-11T06:33:18.716Z,32.27
2022-10-11T06:36:14.520Z,32.10
2022-10-11T06:39:12.597Z,29.67
2022-10-11T06:42:07.562Z,27.27
2022-10-11T06:45:06.088Z,25.30
2022-10-11T06:48:09.455Z,120.83
2022-10-11T06:51:01.632Z,92.80
2022-10-11T06:53:55.250Z,82.70
2022-10-11T06:57:01.879Z,129.90
2022-10-11T07:00:03.351Z,33.17
2022-10-11T07:03:00.686Z,27.13
2022-10-11T07:06:02.440Z,28.33
2022-10-11T07:08:59.453Z,44.43
2022-10-11T07:11:50.626Z,34.63
2022-10-11T07:14:45.298Z,34.20
2022-10-11T07:17:37.551Z,25.70
2022-10-11T07:20:48.428Z,23.80
2022-10-11T07:23:46.540Z,28.83
2022-10-11T07:26:39.345Z,27.00
2022-10-11T07:29:33.631Z,24.67
2022-10-11T07:32:28.675Z,28.70
2022-10-11T07:35:22.467Z,26.07
2022-10-11T07:38:17.570Z,26.13
2022-10-11T07:41:10.213Z,26.23
2022-10-11T07:44:14.823Z,26.73
2022-10-11T07:47:11.381Z,27.00
2022-10-11T07:50:07.884Z,28.20
2022-10-11T07:53:15.078Z,26.00
2022-10-11T07:56:08.120Z,25.10
2022-10-11T07:59:06.566Z,25.90
2022-10-11T08:01:59.040Z,29.10
2022-10-11T08:04:52.757Z,23.63
2022-10-11T08:07:48.750Z,23.20
2022-10-11T08:10:42.965Z,23.03
2022-10-11T08:13:38.317Z,19.40
2022-10-11T08:16:30.497Z,19.23
2022-10-11T08:19:36.844Z,18.90
2022-10-11T08:22:34.614Z,16.37
2022-10-11T08:25:39.640Z,12.23
2022-10-11T08:28:44.003Z,12.67
2022-10-11T08:31:35.762Z,12.20
2022-10-11T08:34:32.674Z,11.70
2022-10-11T08:37:28.755Z,11.43
2022-10-11T08:40:24.475Z,12.50
2022-10-11T08:43:44.126Z,11.90
2022-10-11T08:46:12.196Z,11.37
2022-10-11T08:48:49.075Z,11.00
2022-10-11T08:51:20.917Z,10.43
2022-10-11T08:53:55.780Z,10.20
2022-10-11T08:56:22.667Z,8.37
2022-10-11T08:59:00.725Z,10.27
2022-10-11T09:01:27.863Z,7.47
2022-10-11T09:04:00.546Z,8.00
2022-10-11T09:06:46.107Z,9.87
2022-10-11T09:09:12.709Z,8.10
2022-10-11T09:11:58.081Z,7.60
2022-10-11T09:14:56.443Z,7.47
2022-10-11T09:17:26.021Z,6.60
2022-10-11T09:19:58.780Z,8.03
2022-10-11T09:22:37.541Z,9.10
2022-10-11T09:25:22.940Z,7.23
2022-10-11T09:28:02.953Z,6.73
2022-10-11T09:30:30.490Z,7.40
2022-10-11T09:32:56.927Z,8.33
2022-10-11T09:35:23.513Z,6.87
2022-10-11T09:38:02.120Z,8.00
2022-10-11T09:41:04.239Z,6.10
2022-10-11T09:43:30.842Z,7.07
2022-10-11T09:45:57.426Z,6.67
2022-10-11T09:48:25.934Z,6.40
2022-10-11T09:50:54.552Z,6.80
2022-10-11T09:53:41.008Z,5.27
2022-10-11T09:56:08.147Z,4.90
2022-10-11T09:58:35.940Z,6.23
2022-10-11T10:01:07.640Z,7.70
2022-10-11T10:03:40.895Z,7.10
2022-10-11T10:06:15.433Z,5.83
2022-10-11T10:08:47.042Z,4.90
2022-10-11T10:11:14.355Z,5.00
2022-10-11T10:13:43.230Z,4.73
2022-10-11T10:16:30.168Z,4.50
2022-10-11T10:18:57.761Z,6.03
2022-10-11T10:21:29.983Z,6.87
2022-10-11T10:23:57.668Z,5.17
2022-10-11T10:26:25.446Z,6.20
2022-10-11T10:28:55.925Z,5.87
2022-10-11T10:31:23.586Z,6.37
2022-10-11T10:33:52.960Z,6.23
2022-10-11T10:36:22.261Z,6.17
2022-10-11T10:39:11.220Z,4.60
2022-10-11T10:41:37.932Z,7.67
2022-10-11T10:44:04.973Z,6.20
2022-10-11T10:46:46.919Z,5.73
2022-10-11T10:49:41.599Z,4.93
2022-10-11T10:52:15.291Z,4.57
2022-10-11T10:55:02.395Z,5.53
2022-10-11T10:57:36.969Z,6.07
2022-10-11T11:00:14.602Z,3.60
2022-10-11T11:02:49.629Z,4.13
2022-10-11T11:05:35.119Z,5.80
2022-10-11T11:08:12.032Z,4.70
2022-10-11T11:10:58.778Z,3.07
2022-10-11T11:13:25.267Z,3.63
2022-10-11T11:16:02.014Z,6.37
2022-10-11T11:18:33.488Z,5.63
2022-10-11T11:21:09.600Z,5.23
2022-10-11T11:23:47.764Z,4.73
2022-10-11T11:26:27.309Z,4.97
2022-10-11T11:29:12.177Z,4.53
2022-10-11T11:31:38.688Z,4.87
2022-10-11T11:34:12.023Z,5.13
2022-10-11T11:36:41.564Z,3.20
2022-10-11T11:39:13.603Z,3.80
2022-10-11T11:41:42.797Z,3.03
2022-10-11T11:44:15.601Z,2.90
2022-10-11T11:46:49.080Z,2.33
2022-10-11T11:49:29.578Z,3.47
2022-10-11T11:51:56.677Z,2.50
2022-10-11T11:54:32.457Z,2.67
2022-10-11T11:57:17.939Z,2.83
2022-10-11T11:59:45.188Z,2.30
2022-10-11T12:02:30.779Z,2.60
2022-10-11T12:04:58.000Z,4.20
2022-10-11T12:07:26.939Z,1.40
2022-10-11T12:09:55.221Z,3.60
2022-10-11T12:12:33.949Z,2.97
2022-10-11T12:15:15.833Z,2.67
2022-10-11T12:18:05.897Z,2.63
2022-10-11T12:20:34.633Z,2.67
2022-10-11T12:23:20.260Z,3.40
2022-10-11T12:26:06.943Z,3.10
2022-10-11T12:28:36.882Z,3.20
2022-10-11T12:31:06.264Z,2.77
2022-10-11T12:33:33.875Z,3.10
2022-10-11T12:36:05.724Z,2.47
2022-10-11T12:38:37.816Z,2.47
2022-10-11T12:41:10.358Z,2.20
2022-10-11T12:43:57.366Z,2.73
2022-10-11T12:46:31.100Z,2.60
2022-10-11T12:49:03.598Z,2.27
2022-10-11T12:51:34.358Z,2.93
2022-10-11T12:54:26.028Z,2.10
2022-10-11T12:57:03.392Z,3.07
2022-10-11T12:59:31.297Z,2.30
2022-10-11T13:01:59.466Z,3.77
2022-10-11T13:04:28.971Z,3.00
2022-10-11T13:07:01.114Z,2.93
2022-10-11T13:09:31.911Z,2.10
2022-10-11T13:12:02.027Z,2.43
2022-10-11T13:14:31.806Z,3.30
2022-10-11T13:17:06.389Z,4.27
2022-10-11T13:19:34.516Z,4.07
2022-10-11T13:22:04.385Z,3.60
2022-10-11T13:24:36.003Z,2.67
2022-10-11T13:27:03.003Z,3.20
2022-10-11T13:29:31.614Z,3.67
2022-10-11T13:31:58.868Z,2.27
2022-10-11T13:34:25.847Z,2.93
2022-10-11T13:36:56.444Z,4.47
2022-10-11T13:39:30.708Z,4.23
2022-10-11T13:41:58.737Z,3.20
2022-10-11T13:44:26.076Z,3.10
2022-10-11T13:46:52.948Z,3.33
2022-10-11T13:49:29.120Z,3.57
2022-10-11T13:52:00.563Z,3.03
2022-10-11T13:54:48.709Z,3.63
2022-10-11T13:57:16.864Z,3.50
2022-10-11T13:59:44.342Z,4.13
2022-10-11T14:02:20.307Z,3.27
2022-10-11T14:04:48.595Z,3.90
2022-10-11T14:07:26.775Z,3.33
2022-10-11T14:09:54.853Z,3.53
2022-10-11T14:12:32.979Z,3.83
2022-10-11T14:15:00.932Z,3.33
2022-10-11T14:17:38.658Z,4.10
2022-10-11T14:20:11.967Z,3.90
2022-10-11T14:22:39.465Z,3.07
2022-10-11T14:25:06.451Z,3.80
2022-10-11T14:27:33.380Z,4.10
2022-10-11T14:30:24.446Z,2.50
2022-10-11T14:32:49.417Z,3.57
2022-10-11T14:35:21.470Z,2.73
2022-10-11T14:37:48.519Z,3.37
2022-10-11T14:40:24.326Z,2.50
2022-10-11T14:42:53.873Z,2.40
2022-10-11T14:45:23.745Z,2.70
2022-10-11T14:47:52.746Z,2.20
2022-10-11T14:50:35.560Z,3.30
2022-10-11T14:53:05.756Z,3.47
2022-10-11T14:55:38.917Z,2.67
2022-10-11T14:58:09.423Z,3.23
2022-10-11T15:00:39.916Z,3.20
2022-10-11T15:22:17.795Z,4.27
2022-10-11T15:24:49.363Z,4.33
2022-10-11T15:27:18.271Z,3.80
2022-10-11T15:29:44.904Z,4.33
2022-10-11T15:32:11.660Z,4.17
2022-10-11T15:34:38.460Z,4.70
2022-10-11T15:37:05.088Z,5.10
2022-10-11T15:39:32.984Z,3.90
2022-10-11T15:42:00.076Z,5.37
2022-10-11T15:44:26.772Z,3.87
2022-10-11T15:46:53.413Z,5.30
2022-10-11T15:49:20.007Z,5.87
2022-10-11T15:51:46.628Z,4.00
2022-10-11T15:54:13.280Z,5.50
2022-10-11T15:56:39.900Z,4.60
2022-10-11T15:59:06.552Z,4.33
2022-10-11T16:01:33.437Z,5.50
2022-10-11T16:04:00.052Z,3.73
2022-10-11T16:06:27.510Z,5.93
2022-10-11T16:08:54.110Z,5.27
2022-10-11T16:11:20.859Z,5.53
2022-10-11T16:13:48.388Z,5.67
2022-10-11T16:16:14.986Z,4.30
2022-10-11T16:18:41.554Z,5.27
2022-10-11T16:21:10.091Z,7.63
2022-10-11T16:23:36.954Z,5.90
2022-10-11T16:26:05.284Z,5.90
2022-10-11T16:28:32.711Z,5.70
2022-10-11T16:31:05.295Z,6.47
2022-10-11T16:33:32.336Z,6.63
2022-10-11T16:36:18.940Z,5.93
2022-10-11T16:38:45.848Z,8.77
2022-10-11T16:41:12.648Z,7.40
2022-10-11T16:43:39.271Z,8.80
2022-10-11T16:46:05.984Z,7.40
2022-10-11T16:48:32.831Z,7.23
2022-10-11T16:51:07.139Z,8.80
2022-10-11T16:53:34.425Z,8.13
2022-10-11T16:56:04.777Z,7.97
2022-10-11T16:58:31.648Z,7.67
2022-10-11T17:00:58.310Z,7.50
2022-10-11T17:03:25.060Z,9.40
2022-10-11T17:05:51.602Z,8.30
2022-10-11T17:08:18.292Z,7.70
2022-10-11T17:10:47.266Z,7.70
2022-10-11T17:13:14.230Z,9.33
2022-10-11T17:15:40.854Z,8.50
2022-10-11T17:18:07.503Z,8.70
2022-10-11T17:20:34.302Z,8.17
2022-10-11T17:23:00.862Z,12.13
2022-10-11T17:25:28.112Z,12.80
2022-10-11T17:27:55.293Z,12.47
2022-10-11T17:30:22.213Z,11.13
2022-10-11T17:32:50.304Z,9.10
2022-10-11T17:35:16.949Z,10.13
2022-10-11T17:37:43.591Z,9.33
2022-10-11T17:40:10.337Z,9.23
2022-10-11T17:42:37.048Z,8.77
2022-10-11T17:45:03.887Z,10.70
2022-10-11T17:47:30.676Z,9.10
2022-10-11T17:49:57.198Z,9.83
2022-10-11T17:52:23.771Z,8.70
2022-10-11T17:54:50.360Z,12.00
2022-10-11T17:57:16.922Z,10.30
2022-10-11T17:59:43.636Z,9.37
2022-10-11T18:02:10.397Z,8.50
2022-10-11T18:04:39.792Z,7.57
2022-10-11T18:07:06.689Z,9.50
2022-10-11T18:09:34.824Z,9.80
2022-10-11T18:12:01.523Z,9.10
2022-10-11T18:14:28.077Z,9.87
2022-10-11T18:16:54.697Z,9.70
2022-10-11T18:19:21.342Z,10.77
2022-10-11T18:21:48.124Z,10.27
2022-10-11T18:24:15.598Z,11.80
2022-10-11T18:26:42.881Z,12.90
2022-10-11T18:29:09.592Z,10.90
2022-10-11T18:31:36.504Z,10.63
2022-10-11T18:34:04.057Z,12.63
2022-10-11T18:36:31.275Z,11.97
2022-10-11T18:38:59.680Z,11.10
2022-10-11T18:41:30.709Z,14.00
2022-10-11T18:44:01.014Z,15.47
2022-10-11T18:46:27.953Z,14.00
2022-10-11T18:48:55.620Z,14.40
2022-10-11T18:51:24.384Z,14.60
2022-10-11T18:53:51.348Z,14.00
2022-10-11T18:56:20.656Z,14.70
2022-10-11T18:58:47.794Z,13.00
2022-10-11T19:01:18.687Z,15.53
2022-10-11T19:03:46.334Z,13.70
2022-10-11T19:06:17.158Z,11.50
2022-10-11T19:08:49.222Z,14.07
2022-10-11T19:11:16.669Z,12.37
2022-10-11T19:13:43.622Z,14.37
2022-10-11T19:16:12.136Z,13.80
2022-10-11T19:18:43.883Z,12.10
2022-10-11T19:21:12.520Z,12.60
2022-10-11T19:23:40.826Z,14.93
2022-10-11T19:26:09.281Z,15.80
2022-10-11T19:28:36.191Z,13.93
2022-10-11T19:31:07.195Z,13.63
2022-10-11T19:33:34.254Z,11.53
2022-10-11T19:36:04.782Z,14.20
2022-10-11T19:38:32.305Z,14.57
2022-10-11T19:41:02.874Z,13.67
2022-10-11T19:43:30.731Z,10.90
2022-10-11T19:46:01.358Z,13.70
2022-10-11T19:48:29.622Z,11.60
2022-10-11T19:51:06.825Z,14.70
2022-10-11T19:53:33.845Z,12.63
2022-10-11T19:56:01.255Z,15.13
2022-10-11T19:58:28.188Z,14.27
2022-10-11T20:01:00.870Z,12.63
2022-10-11T20:03:27.432Z,13.57
2022-10-11T20:05:53.964Z,15.20
2022-10-11T20:08:20.571Z,14.17
2022-10-11T20:10:47.518Z,15.87
2022-10-11T20:13:14.087Z,19.63
2022-10-11T20:15:41.733Z,14.27
2022-10-11T20:18:08.362Z,14.50
2022-10-11T20:20:35.164Z,15.17
2022-10-11T20:23:01.833Z,13.20
2022-10-11T20:25:28.476Z,15.60
2022-10-11T20:27:55.002Z,13.40
2022-10-11T20:30:21.480Z,13.90
2022-10-11T20:32:48.135Z,18.73
2022-10-11T20:35:14.720Z,14.43
2022-10-11T20:37:41.356Z,42.37
2022-10-11T20:40:08.340Z,23.03
2022-10-11T20:42:34.879Z,73.63
2022-10-11T20:45:01.508Z,32.47
2022-10-11T20:47:28.196Z,20.93
2022-10-11T20:49:54.670Z,32.63
2022-10-11T20:52:21.151Z,23.17
2022-10-11T20:54:47.695Z,27.07
2022-10-11T20:57:14.237Z,20.37
2022-10-11T20:59:40.917Z,45.13
2022-10-11T21:02:07.431Z,41.03
2022-10-11T21:04:34.143Z,20.37
2022-10-11T21:07:00.653Z,17.27
2022-10-11T21:09:27.303Z,31.20
2022-10-11T21:11:53.974Z,23.07
2022-10-11T21:14:20.689Z,17.83
2022-10-11T21:16:47.366Z,16.90
2022-10-11T21:19:15.241Z,17.80
2022-10-11T21:21:42.324Z,25.00
2022-10-11T21:24:08.848Z,19.00
2022-10-11T21:26:35.965Z,19.50
2022-10-11T21:29:04.143Z,21.93
2022-10-11T21:31:34.091Z,18.10
2022-10-11T21:34:01.516Z,23.57
2022-10-11T21:36:28.075Z,18.60
2022-10-11T21:38:54.769Z,35.07
2022-10-11T21:41:22.441Z,33.33
2022-10-11T21:43:49.314Z,24.27
2022-10-11T21:46:17.084Z,20.37
2022-10-11T21:48:43.813Z,25.37
2022-10-11T21:51:19.040Z,21.00
2022-10-11T21:53:45.863Z,22.00
2022-10-11T21:56:12.506Z,19.93
2022-10-11T21:58:39.224Z,21.77
2022-10-11T22:01:06.168Z,19.70
2022-10-11T22:03:32.872Z,21.70
2022-10-11T22:06:01.379Z,20.07
2022-10-11T22:08:28.084Z,19.53
2022-10-11T22:10:55.744Z,19.60
2022-10-11T22:13:22.348Z,20.37
2022-10-11T22:15:49.167Z,20.97
2022-10-11T22:18:16.194Z,19.27
2022-10-11T22:20:42.674Z,19.37
2022-10-11T22:23:09.303Z,18.80
2022-10-11T22:25:36.315Z,19.47
2022-10-11T22:28:03.567Z,19.97
2022-10-11T22:30:30.429Z,20.67
2022-10-11T22:32:56.897Z,18.87
2022-10-11T22:35:23.711Z,18.80
2022-10-11T22:37:53.388Z,19.27
2022-10-11T22:40:19.978Z,21.83
2022-10-11T22:42:46.461Z,19.17
2022-10-11T22:45:12.943Z,19.20
2022-10-11T22:47:39.630Z,21.17
2022-10-11T22:50:06.225Z,19.47
2022-10-11T22:52:32.668Z,18.83
2022-10-11T22:54:59.156Z,19.67
2022-10-11T22:57:25.752Z,21.00
2022-10-11T22:59:52.426Z,22.07
2022-10-11T23:02:18.892Z,44.40
2022-10-11T23:04:45.424Z,154.17
2022-10-11T23:07:11.938Z,32.30
2022-10-11T23:09:38.377Z,31.90
2022-10-11T23:12:04.907Z,29.00
2022-10-11T23:14:31.532Z,33.80
2022-10-11T23:16:58.040Z,22.00
2022-10-11T23:19:24.643Z,28.63
2022-10-11T23:21:51.347Z,23.20
2022-10-11T23:24:17.818Z,25.37
2022-10-11T23:26:44.517Z,22.47
2022-10-11T23:29:11.050Z,22.97
2022-10-11T23:31:37.725Z,23.90
2022-10-11T23:34:04.273Z,22.40
2022-10-11T23:36:30.787Z,21.03
2022-10-11T23:38:58.261Z,23.10
2022-10-11T23:41:25.947Z,21.70
2022-10-11T23:43:53.161Z,22.50
2022-10-11T23:46:19.939Z,23.03
2022-10-11T23:48:46.477Z,21.77
2022-10-11T23:51:15.891Z,21.97
2022-10-11T23:53:42.459Z,22.00
2022-10-11T23:56:10.050Z,22.47
2022-10-11T23:58:36.815Z,21.73
